Latest Weather Observations for Hay Point

IDQ60801

Issued at 12:02 am EST Monday 16 September 2019 (issued every 10 minutes, with the page automatically refreshed every 10 minutes)

About weather observations | Map of weather stations | Latest weather observations for QLD | Other Formats
Station Details ID: 033317 Name: HAY POINT Lat: -21.29 Lon: 149.30 Height: 7.0 m
Data from the previous 72 hours. | See also: Recent months for locations in Queensland
Date/Time
EST
Temp
°C
App
Temp
°C
Dew
Point
°C
Rel
Hum
%
Delta-T
°C
Wind Press
QNH
hPa
Press
MSL
hPa
Rain since
9am
mm
Dir  Spd
km/h
Gust
km/h
Spd
kts
Gust
kts
16/12:00am - - - - - ESE 15 19 8 10 - - -
 
Date/Time
EST
Temp
°C
App
Temp
°C
Dew
Point
°C
Rel
Hum
%
Delta-T
°C
Wind Press
QNH
hPa
Press
MSL
hPa
Rain since
9am
mm
Dir  Spd
km/h
Gust
km/h
Spd
kts
Gust
kts
15/11:30pm - - - - - E 13 17 7 9 - - -
15/11:00pm - - - - - ENE 15 17 8 9 - - -
15/10:30pm - - - - - ENE 17 22 9 12 - - -
15/10:00pm - - - - - E 15 20 8 11 - - -
15/09:30pm - - - - - E 15 17 8 9 - - -
15/09:00pm - - - - - E 15 20 8 11 - - -
15/08:30pm - - - - - E 15 20 8 11 - - -
15/08:00pm - - - - - E 15 19 8 10 - - -
15/07:30pm - - - - - ENE 15 17 8 9 - - -
15/07:00pm - - - - - E 15 17 8 9 - - -
15/06:30pm - - - - - E 15 19 8 10 - - -
15/06:00pm - - - - - E 13 15 7 8 - - -
15/05:30pm - - - - - E 15 17 8 9 - - -
15/05:00pm - - - - - ESE 17 19 9 10 - - -
15/04:30pm - - - - - ESE 17 20 9 11 - - -
15/04:00pm - - - - - SE 17 20 9 11 - - -
15/03:30pm - - - - - SE 13 17 7 9 - - -
15/03:00pm - - - - - SE 11 15 6 8 - - -
15/02:30pm - - - - - SE 13 15 7 8 - - -
15/02:00pm - - - - - ESE 13 17 7 9 - - -
15/01:30pm - - - - - ESE 13 17 7 9 - - -
15/01:00pm - - - - - ESE 13 15 7 8 - - -
15/12:30pm - - - - - ESE 13 17 7 9 - - -
15/12:00pm - - - - - ESE 11 13 6 7 - - -
15/11:30am - - - - - ESE 9 11 5 6 - - -
15/11:00am - - - - - ESE 9 13 5 7 - - -
15/10:30am - - - - - SE 7 9 4 5 - - -
15/10:00am - - - - - SE 9 11 5 6 - - -
15/09:30am - - - - - SE 9 11 5 6 - - -
15/09:00am - - - - - CALM 0 0 0 0 - - -
15/08:30am - - - - - SW 9 11 5 6 - - -
15/08:00am - - - - - WSW 13 15 7 8 - - -
15/07:30am - - - - - WSW 9 11 5 6 - - -
15/07:00am - - - - - WSW 11 13 6 7 - - -
15/06:30am - - - - - WSW 9 13 5 7 - - -
15/06:00am - - - - - SW 7 9 4 5 - - -
15/05:30am - - - - - WSW 9 11 5 6 - - -
15/05:00am - - - - - SW 9 9 5 5 - - -
15/04:30am - - - - - SW 9 11 5 6 - - -
15/04:00am - - - - - SSW 9 9 5 5 - - -
15/03:30am - - - - - WSW 9 11 5 6 - - -
15/03:00am - - - - - NW 6 7 3 4 - - -
15/02:30am - - - - - CALM 0 0 0 0 - - -
15/02:00am - - - - - SW 7 9 4 5 - - -
15/01:30am - - - - - WSW 4 7 2 4 - - -
15/01:00am - - - - - WSW 9 11 5 6 - - -
15/12:30am - - - - - WSW 11 13 6 7 - - -
15/12:00am - - - - - WSW 13 15 7 8 - - -
 
Date/Time
EST
Temp
°C
App
Temp
°C
Dew
Point
°C
Rel
Hum
%
Delta-T
°C
Wind Press
QNH
hPa
Press
MSL
hPa
Rain since
9am
mm
Dir  Spd
km/h
Gust
km/h
Spd
kts
Gust
kts
14/11:30pm - - - - - WSW 11 13 6 7 - - -
14/11:00pm - - - - - WSW 7 9 4 5 - - -
14/10:30pm - - - - - WSW 11 11 6 6 - - -
14/10:00pm - - - - - CALM 0 2 0 1 - - -
14/09:30pm - - - - - CALM 0 0 0 0 - - -
14/09:00pm - - - - - CALM 0 0 0 0 - - -
14/08:30pm - - - - - CALM 0 6 0 3 - - -
14/08:00pm - - - - - N 9 11 5 6 - - -
14/07:30pm - - - - - N 11 13 6 7 - - -
14/07:00pm - - - - - NNE 11 13 6 7 - - -
14/06:30pm - - - - - NE 15 17 8 9 - - -
14/06:00pm - - - - - ENE 19 22 10 12 - - -
14/05:30pm - - - - - ENE 19 20 10 11 - - -
14/05:00pm - - - - - ENE 19 22 10 12 - - -
14/04:30pm - - - - - ENE 17 19 9 10 - - -
14/04:00pm - - - - - ENE 17 19 9 10 - - -
14/03:30pm - - - - - ENE 13 15 7 8 - - -
14/03:00pm - - - - - NE 13 13 7 7 - - -
14/02:30pm - - - - - NE 13 15 7 8 - - -
14/02:00pm - - - - - NE 15 15 8 8 - - -
14/01:30pm - - - - - NE 13 15 7 8 - - -
14/01:00pm - - - - - NE 13 15 7 8 - - -
14/12:30pm - - - - - NE 13 15 7 8 - - -
14/12:00pm - - - - - NNE 13 15 7 8 - - -
14/11:30am - - - - - NE 11 13 6 7 - - -
14/11:00am - - - - - ENE 7 9 4 5 - - -
14/10:30am - - - - - E 7 7 4 4 - - -
14/10:00am - - - - - E 7 9 4 5 - - -
14/09:30am - - - - - CALM 0 0 0 0 - - -
14/09:00am - - - - - CALM 0 0 0 0 - - -
14/08:30am - - - - - CALM 0 0 0 0 - - -
14/08:00am - - - - - CALM 0 0 0 0 - - -
14/07:30am - - - - - CALM 0 0 0 0 - - -
14/07:00am - - - - - CALM 0 0 0 0 - - -
14/06:30am - - - - - CALM 0 0 0 0 - - -
14/06:00am - - - - - CALM 0 0 0 0 - - -
14/05:30am - - - - - CALM 0 0 0 0 - - -
14/05:00am - - - - - CALM 0 0 0 0 - - -
14/04:30am - - - - - CALM 0 4 0 2 - - -
14/04:00am - - - - - CALM 0 7 0 4 - - -
14/03:30am - - - - - W 9 9 5 5 - - -
14/03:00am - - - - - W 2 7 1 4 - - -
14/02:30am - - - - - SSW 2 9 1 5 - - -
14/02:00am - - - - - NNW 4 7 2 4 - - -
14/01:30am - - - - - W 9 11 5 6 - - -
14/01:00am - - - - - WSW 15 17 8 9 - - -
14/12:30am - - - - - WSW 15 19 8 10 - - -
14/12:00am - - - - - W 13 17 7 9 - - -
 
Date/Time
EST
Temp
°C
App
Temp
°C
Dew
Point
°C
Rel
Hum
%
Delta-T
°C
Wind Press
QNH
hPa
Press
MSL
hPa
Rain since
9am
mm
Dir  Spd
km/h
Gust
km/h
Spd
kts
Gust
kts
13/11:30pm - - - - - W 11 13 6 7 - - -
13/11:00pm - - - - - WSW 2 7 1 4 - - -
13/10:30pm - - - - - WSW 7 11 4 6 - - -
13/10:00pm - - - - - W 9 13 5 7 - - -
13/09:30pm - - - - - W 7 9 4 5 - - -
13/09:00pm - - - - - W 9 13 5 7 - - -
13/08:30pm - - - - - W 9 11 5 6 - - -
13/08:00pm - - - - - CALM 0 0 0 0 - - -
13/07:30pm - - - - - W 7 7 4 4 - - -
13/07:00pm - - - - - WNW 4 9 2 5 - - -
13/06:30pm - - - - - NNW 9 11 5 6 - - -
13/06:00pm - - - - - N 13 13 7 7 - - -
13/05:30pm - - - - - N 13 15 7 8 - - -
13/05:00pm - - - - - NNE 15 17 8 9 - - -
13/04:30pm - - - - - NNE 17 19 9 10 - - -
13/04:00pm - - - - - NE 17 20 9 11 - - -
13/03:30pm - - - - - ENE 19 22 10 12 - - -
13/03:00pm - - - - - ENE 17 19 9 10 - - -
13/02:30pm - - - - - ENE 15 17 8 9 - - -
13/02:00pm - - - - - E 13 17 7 9 - - -
13/01:30pm - - - - - E 13 17 7 9 - - -
13/01:00pm - - - - - ESE 13 17 7 9 - - -
13/12:30pm - - - - - ESE 13 15 7 8 - - -
13/12:00pm - - - - - ESE 13 15 7 8 - - -
13/11:30am - - - - - SE 13 15 7 8 - - -
13/11:00am - - - - - SE 13 17 7 9 - - -
13/10:30am - - - - - SE 15 17 8 9 - - -
13/10:00am - - - - - SSE 17 20 9 11 - - -
13/09:30am - - - - - SSE 15 20 8 11 - - -
13/09:00am - - - - - S 13 17 7 9 - - -
13/08:30am - - - - - S 13 15 7 8 - - -
13/08:00am - - - - - SSW 13 15 7 8 - - -
13/07:30am - - - - - SSW 15 17 8 9 - - -
13/07:00am - - - - - SSW 11 15 6 8 - - -
13/06:30am - - - - - SSW 11 13 6 7 - - -
13/06:00am - - - - - SSW 11 15 6 8 - - -
13/05:30am - - - - - SSW 11 15 6 8 - - -
13/05:00am - - - - - SSW 13 15 7 8 - - -
13/04:30am - - - - - SSW 15 19 8 10 - - -
13/04:00am - - - - - SSW 13 15 7 8 - - -
13/03:30am - - - - - SSW 11 15 6 8 - - -
13/03:00am - - - - - SSW 11 13 6 7 - - -
13/02:30am - - - - - SSW 13 17 7 9 - - -
13/02:00am - - - - - SSW 13 15 7 8 - - -
13/01:30am - - - - - SSW 11 13 6 7 - - -
13/01:00am - - - - - S 13 17 7 9 - - -
13/12:30am - - - - - SSW 13 15 7 8 - - -

Other formats

Comma delimited format used in spreadsheet applications
http://www.bom.gov.au/fwo/IDQ60801/IDQ60801.99367.axf

JavaScript Object Notation format (JSON) in row-major order
http://www.bom.gov.au/fwo/IDQ60801/IDQ60801.99367.json

Data quality

Most of these data are generated automatically and are frequently updated. Quality checks on data are not normally performed. It is possible for incorrect values to appear. Refer to information at About Latest Weather Observations and please check the disclaimer before using these data.